This is the latest recevied weather packets stored in our database for station/object KM4CNW. If no packets are shown the sender has not sent any weather packets the latest 10 day(s).
| Time | Temp. | Humidity | Pressure | Rain* | Wind** | Luminosity | Snow |
|---|---|---|---|---|---|---|---|
| 1777776404 | 6.67° C | 82% | 1009.5 hPa | 0 mm | - | 0 W/m² | - |
| 1777776102 | 7.22° C | 82% | 1009.4 hPa | 0 mm | - | 0 W/m² | - |
| 1777775798 | 7.22° C | 81% | 1009.2 hPa | 0 mm | - | 0 W/m² | - |
| 1777775495 | 7.78° C | 80% | 1009.3 hPa | 0 mm | - | 0 W/m² | - |
| 1777775191 | 7.78° C | 79% | 1009.2 hPa | 0 mm | - | 0 W/m² | - |
| 1777774886 | 7.78° C | 78% | 1009.3 hPa | 0 mm | - | 0 W/m² | - |
| 1777774583 | 7.78° C | 78% | 1009.3 hPa | 0 mm | - | 0 W/m² | - |
| 1777774280 | 7.78° C | 79% | 1009.2 hPa | 0 mm | - | 0 W/m² | - |
| 1777773977 | 7.78° C | 79% | 1009.2 hPa | 0 mm | - | 0 W/m² | - |
| 1777773674 | 7.78° C | 79% | 1009.1 hPa | 0 mm | - | 0 W/m² | - |
| 1777773371 | 7.78° C | 78% | 1008.9 hPa | 0 mm | - | 0 W/m² | - |
| 1777773068 | 7.78° C | 77% | 1008.7 hPa | 0 mm | - | 0 W/m² | - |
| 1777771554 | 8.89° C | 74% | 1008.1 hPa | 0 mm | - | 0 W/m² | - |
| 1777770340 | 10° C | 69% | 1008.1 hPa | 0 mm | - | 0 W/m² | - |
| 1777770038 | 10° C | 69% | 1008.1 hPa | 0 mm | - | 0 W/m² | - |
| 1777768220 | 11.67° C | 60% | 1007.4 hPa | 0 mm | - | 0 W/m² | - |
| 1777767917 | 12.22° C | 59% | 1007.3 hPa | 0 mm | - | 0 W/m² | - |
| 1777767008 | 12.78° C | 52% | 1006.8 hPa | 0 mm | - | 1 W/m² | - |
| 1777764885 | 13.89° C | 46% | 1006.7 hPa | 0 mm | - | 12 W/m² | - |
| 1777761855 | 16.11° C | 37% | 1006 hPa | 0 mm | - | 99 W/m² | - |
| 1777761250 | 16.67° C | 35% | 1006.1 hPa | 0 mm | - | 168 W/m² | - |
| 1777760948 | 16.67° C | 33% | 1005.9 hPa | 0 mm | - | 189 W/m² | - |
| 1777760645 | 16.67° C | 33% | 1005.9 hPa | 0 mm | - | 219 W/m² | - |
| 1777760037 | 16.67° C | 35% | 1005.9 hPa | 0 mm | - | 257 W/m² | - |
| 1777759734 | 16.67° C | 34% | 1005.8 hPa | 0 mm | - | 265 W/m² | - |
* Rain latest hour (hover to see other rain measurements)
** Current wind speed in m/s (hover to see current wind gust speed)